Terminal Aerodrome Forecast
Issued by NWS Sterling, VA

Home | Current Version | Previous Version | Text Only | Print | Product List | Glossary On
Versions: 1 2 3 4 5 6 7 8 9 10 11 12 13 14 15 16 17 18 19 20 21 22 23 24 25 26 27 28
000
FTUS41 KLWX 240857 AAA
TAFIAD
TAF AMD
KIAD 240857Z 2409/2512 34012KT 6SM -RA SCT008 BKN015
     FM241300 32013G20KT P6SM BKN015
     FM241800 32015G23KT P6SM BKN025
     FM242200 31015G23KT P6SM SCT030
     FM250300 31009KT P6SM FEW250
     FM251100 23004KT P6SM FEW250=

USA.gov is the U.S. government's official web portal to all federal, state and local government web resources and services.